CCGS Cape Naden — CFN5482 — position and weather

sailwx.info

Track history (hours):
 
Tides and Currents Weather Stations Pressure Air Temp Water Temp Dewpoint Dewpoint Depression Visibility Wind Speed Wind Dir Waves Ship Positions

CCGS Cape Naden

Last reported at 2015-Mar-03 02:27 UTC. Time now 2015-Mar-03 04:40 UTC.
Position N 48°51' W 123°30'.

Length 15 m; draft 0.8 m.

Type: SAR. MMSI: 316017162.

Date/timePositionNaut miles runAvg speedWind from/ knotsBaromVisibWave heightAir tempDewpointWater temp
2015-Mar-03 02:27N 48°51' W 123°30'0 0.0
2015-Mar-02 17:31N 48°51' W 123°30'0 0.0
2015-Mar-02 16:31N 48°51' W 123°30'0 0.0
2015-Mar-02 15:32N 48°51' W 123°30'0 0.0
2015-Mar-02 14:30N 48°51' W 123°30'0 0.0
2015-Mar-02 13:33N 48°51' W 123°30'0 0.0
2015-Mar-02 12:33N 48°51' W 123°30'0 0.0
2015-Mar-02 11:33N 48°51' W 123°30'0 0.0
2015-Mar-02 10:33N 48°51' W 123°30'0 0.0
2015-Mar-02 09:21N 48°51' W 123°30'0 0.0
2015-Mar-02 08:26N 48°51' W 123°30'1 0.1
2015-Mar-01 22:29N 48°51' W 123°29'1212.8
2015-Mar-01 21:32N 48°39' W 123°33'0 0.0
2015-Mar-01 20:33N 48°39' W 123°33'4 4.0
2015-Mar-01 19:34N 48°39' W 123°27'12 0.6
2015-Feb-28 22:31N 48°51' W 123°30'0 0.0
2015-Feb-28 21:29N 48°51' W 123°30'0 0.0
2015-Feb-28 20:31N 48°51' W 123°30'0 0.0
2015-Feb-28 18:33N 48°51' W 123°30'0 0.0
2015-Feb-28 13:31N 48°51' W 123°30'0 0.0
2015-Feb-27 18:17N 48°51' W 123°30'0 0.0
2015-Feb-27 17:31N 48°51' W 123°30'0 0.0
2015-Feb-27 16:24N 48°51' W 123°30'0 0.0
2015-Feb-27 15:26N 48°51' W 123°30'0 0.0
2015-Feb-27 14:27N 48°51' W 123°30'0 0.0
2015-Feb-27 13:32N 48°51' W 123°30'0 0.0
2015-Feb-27 12:25N 48°51' W 123°30'0 0.0
2015-Feb-27 11:31N 48°51' W 123°30'0 0.0
2015-Feb-27 10:31N 48°51' W 123°30'0 0.0
2015-Feb-27 09:24N 48°51' W 123°30'0 0.0
2015-Feb-27 07:19N 48°51' W 123°30'0 0.0
2015-Feb-27 06:24N 48°51' W 123°30'0 0.0
2015-Feb-27 05:32N 48°51' W 123°30'2 0.3
2015-Feb-26 22:24N 48°50' W 123°27'5 6.5
2015-Feb-26 21:33N 48°49' W 123°35'4 1.8
2015-Feb-26 19:30N 48°51' W 123°30'1212.5
2015-Feb-26 18:33N 48°41' W 123°21'1210.4
2015-Feb-26 17:24N 48°51' W 123°30'0 0.0
2015-Feb-26 15:20N 48°51' W 123°30'0 0.0
2015-Feb-25 17:32N 48°51' W 123°30'0 0.0
2015-Feb-25 16:09N 48°51' W 123°30'0 0.0
2015-Feb-25 15:20N 48°51' W 123°30'0 0.0
2015-Feb-24 05:29N 48°51' W 123°30'  
2015-Feb-21 22:08N 48°51' W 123°30'0 0.1
2015-Feb-21 21:13N 48°51' W 123°30'1014.9
2015-Feb-21 20:33N 48°48' W 123°16'2 1.1
2015-Feb-21 18:26N 48°46' W 123°15'11 3.5
2015-Feb-21 15:14N 48°51' W 123°30'0 0.0
2015-Feb-21 12:07N 48°51' W 123°30'  
Track history (hours):
 
Tides and Currents Weather Stations Pressure Air Temp Water Temp Dewpoint Dewpoint Depression Visibility Wind Speed Wind Dir Waves Ship Positions

CCGS Cape Naden

Last reported at 2015-Mar-03 02:27 UTC. Time now 2015-Mar-03 04:40 UTC.
Position N 48°51' W 123°30'.

Length 15 m; draft 0.8 m.

Type: SAR. MMSI: 316017162.

Date/timePositionNaut miles runAvg speedWind from/ knotsBaromVisibWave heightAir tempDewpointWater temp
2015-Mar-03 02:27N 48°51' W 123°30'0 0.0
2015-Mar-02 17:31N 48°51' W 123°30'0 0.0
2015-Mar-02 16:31N 48°51' W 123°30'0 0.0
2015-Mar-02 15:32N 48°51' W 123°30'0 0.0
2015-Mar-02 14:30N 48°51' W 123°30'0 0.0
2015-Mar-02 13:33N 48°51' W 123°30'0 0.0
2015-Mar-02 12:33N 48°51' W 123°30'0 0.0
2015-Mar-02 11:33N 48°51' W 123°30'0 0.0
2015-Mar-02 10:33N 48°51' W 123°30'0 0.0
2015-Mar-02 09:21N 48°51' W 123°30'0 0.0
2015-Mar-02 08:26N 48°51' W 123°30'1 0.1
2015-Mar-01 22:29N 48°51' W 123°29'1212.8
2015-Mar-01 21:32N 48°39' W 123°33'0 0.0
2015-Mar-01 20:33N 48°39' W 123°33'4 4.0
2015-Mar-01 19:34N 48°39' W 123°27'12 0.6
2015-Feb-28 22:31N 48°51' W 123°30'0 0.0
2015-Feb-28 21:29N 48°51' W 123°30'0 0.0
2015-Feb-28 20:31N 48°51' W 123°30'0 0.0
2015-Feb-28 18:33N 48°51' W 123°30'0 0.0
2015-Feb-28 13:31N 48°51' W 123°30'0 0.0
2015-Feb-27 18:17N 48°51' W 123°30'0 0.0
2015-Feb-27 17:31N 48°51' W 123°30'0 0.0
2015-Feb-27 16:24N 48°51' W 123°30'0 0.0
2015-Feb-27 15:26N 48°51' W 123°30'0 0.0
2015-Feb-27 14:27N 48°51' W 123°30'0 0.0
2015-Feb-27 13:32N 48°51' W 123°30'0 0.0
2015-Feb-27 12:25N 48°51' W 123°30'0 0.0
2015-Feb-27 11:31N 48°51' W 123°30'0 0.0
2015-Feb-27 10:31N 48°51' W 123°30'0 0.0
2015-Feb-27 09:24N 48°51' W 123°30'0 0.0
2015-Feb-27 07:19N 48°51' W 123°30'0 0.0
2015-Feb-27 06:24N 48°51' W 123°30'0 0.0
2015-Feb-27 05:32N 48°51' W 123°30'2 0.3
2015-Feb-26 22:24N 48°50' W 123°27'5 6.5
2015-Feb-26 21:33N 48°49' W 123°35'4 1.8
2015-Feb-26 19:30N 48°51' W 123°30'1212.5
2015-Feb-26 18:33N 48°41' W 123°21'1210.4
2015-Feb-26 17:24N 48°51' W 123°30'0 0.0
2015-Feb-26 15:20N 48°51' W 123°30'0 0.0
2015-Feb-25 17:32N 48°51' W 123°30'0 0.0
2015-Feb-25 16:09N 48°51' W 123°30'0 0.0
2015-Feb-25 15:20N 48°51' W 123°30'0 0.0
2015-Feb-24 05:29N 48°51' W 123°30'  
2015-Feb-21 22:08N 48°51' W 123°30'0 0.1
2015-Feb-21 21:13N 48°51' W 123°30'1014.9
2015-Feb-21 20:33N 48°48' W 123°16'2 1.1
2015-Feb-21 18:26N 48°46' W 123°15'11 3.5
2015-Feb-21 15:14N 48°51' W 123°30'0 0.0
2015-Feb-21 12:07N 48°51' W 123°30'  

Dump ship's entire track history